Norske Flyklubber
Antall som skal vises: 
Nr. Nettlenke Treff
1   Link   Aerobatic Club of Norway
1715
2   Link   Bardufoss Flyklubb
2465
3   Link   Bergen Aero Klubb
2102
4   Link   Bodø Flyklubb
2084
5   Link   Borg Flyklubb
1711
6   Link   Drammen Flyklubb
5026
7   Link   Elverum Flyklubb
1763
8   Link   Follo Flyklubb
1926
9   Link   Gardermoen Flyklubb
1797
10   Link   Grenland Flyklubb
3166
11   Link   Gudbrandsdal Flyklubb
2312
12   Link   Hattfjelldal Flyklubb
2395
13   Link   Hedmark Flyklubb
1775
14   Link   Kilen Sjøflyklubb
2034
15   Link   Klanten Flyklubb
1821
16   Link   Land Flyklubb
2172
17   Link   Lofoten Flyklubb
2315
18   Link   Møre Flyklubb
1735
19   Link   Nedre Romerike Flyklubb
1739
20   Link   Nome Flyklubb
2260
«StartForrige12NesteSiste»
Side 1 av 2
 
METAR
2018/04/26 13:20 ENCN 261320Z 19012KT 9999 FEW019TCU SCT028 10/05 Q1002
TAF
2018/04/26 12:36 TAF TAF ENCN 261100Z 2612/2621 19012KT 9999 FEW008 BKN015 TEMPO 2612/2621 SHRA BKN007 FEW015CB
LN-KFK
Groundet
VFR dag
05:01 - 21:51
Brannvakt
Inaktiv
Banner
Banner
Banner
Banner
Banner